Date,TemperatureHighF,TemperatureAvgF,TemperatureLowF,DewpointHighF,DewpointAvgF,DewpointLowF,HumidityHigh,HumidityAvg,HumidityLow,PressureMaxIn,PressureMinIn,WindSpeedMaxMPH,WindSpeedAvgMPH,GustSpeedMaxMPH,PrecipitationSumIn
2013-3-1,28.6,25.0,23.4,25.2,20.8,18.5,88,84,79,30.03,29.89,7,4,13,0.00
2013-3-2,24.8,22.9,19.0,19.9,18.3,15.2,87,82,77,30.01,29.97,4,2,10,0.00
2013-3-3,29.8,21.8,18.5,16.4,14.9,11.7,87,75,56,29.99,29.93,4,1,9,0.00
2013-3-4,33.4,22.9,13.3,19.4,14.8,10.5,89,72,53,30.06,29.98,3,0,5,0.00
2013-3-5,34.2,25.3,18.9,26.0,20.4,15.0,94,82,67,30.04,29.75,6,2,12,0.00
2013-3-6,37.6,31.1,25.0,29.1,26.5,22.2,91,83,69,30.14,29.77,7,2,11,0.00
2013-3-7,36.1,32.2,28.0,30.0,25.9,20.0,93,78,60,30.32,30.12,7,1,11,0.00
2013-3-8,41.7,31.5,22.3,27.2,22.4,17.3,81,70,52,30.42,30.31,3,0,6,0.00
2013-3-9,41.9,33.6,24.6,32.8,28.4,22.8,95,82,66,30.32,29.96,3,1,5,0.00
2013-3-10,58.8,46.7,34.2,45.8,38.1,31.3,91,73,58,29.96,29.74,2,1,5,0.00
2013-3-11,52.3,46.7,35.4,49.2,43.5,32.3,99,89,69,29.76,29.43,4,1,9,0.40
2013-3-12,35.4,32.4,28.4,32.5,28.9,24.8,95,87,76,29.85,29.64,3,2,8,0.01
2013-3-13,30.2,27.1,23.0,27.8,20.8,15.4,97,78,60,30.12,29.79,5,2,10,0.00
2013-3-14,39.7,29.7,20.3,23.3,19.1,14.9,83,66,46,30.19,30.02,4,1,8,0.01
2013-3-15,40.8,34.0,29.8,34.4,29.7,20.9,99,85,67,30.02,29.77,4,1,8,0.04
2013-3-16,32.2,28.6,26.6,31.9,27.1,24.2,99,94,86,29.97,29.69,2,0,4,0.00
2013-3-17,33.1,25.6,20.5,24.8,18.0,13.7,90,74,55,30.18,29.96,3,0,5,0.04
2013-3-18,33.3,28.8,21.7,33.0,26.8,17.0,99,92,80,30.09,29.49,4,2,8,0.01
2013-3-19,33.1,25.2,21.0,32.0,19.2,15.4,97,78,69,29.87,29.56,5,3,12,0.00
2013-3-20,27.0,22.6,15.3,18.8,14.9,9.9,84,72,59,29.88,29.82,5,2,9,0.00
2013-3-21,30.4,22.2,13.1,22.9,17.7,10.2,92,83,68,29.87,29.79,4,2,8,0.00
2013-3-22,38.7,29.6,24.3,23.7,21.0,18.0,82,71,54,29.96,29.87,4,1,11,0.00
2013-3-23,36.5,28.3,21.9,25.7,22.6,19.9,93,80,62,30.03,29.95,5,1,9,0.00
2013-3-24,35.2,29.2,23.7,26.7,23.5,20.5,94,80,62,29.96,29.57,7,2,12,0.00
2013-3-25,37.9,32.9,28.4,29.1,26.2,23.7,90,77,64,29.86,29.50,10,5,16,0.00
2013-3-26,42.4,34.5,30.9,31.5,28.9,27.1,92,80,58,30.06,29.85,4,2,10,0.02
2013-3-27,45.7,36.2,29.1,30.9,26.8,23.8,91,71,48,30.15,30.06,5,2,13,0.00
2013-3-28,51.1,39.3,29.3,28.3,25.2,22.9,82,60,39,30.21,30.15,4,2,11,0.00
2013-3-29,51.4,42.8,31.3,24.9,17.5,12.5,69,41,25,30.22,30.13,4,1,10,0.00
2013-3-30,55.4,42.8,28.8,26.9,16.7,-3.2,72,42,12,30.16,29.87,3,1,7,0.00
2013-3-31,58.3,46.1,38.7,43.7,29.8,17.9,95,58,24,29.86,29.58,4,2,10,0.02